»·PEaware :: N5002T KBUR-KSBA

N5002T :: KBUR-KSBA

FLIGHT INFORMATION

Flight Status: Arrived
Operator: Privately registered:
United States
More flights under this callsign
Pilot: Hunter M. (19355)
Aircraft: CESSNA 172 SKYHAWK
(C172)
More flights by this aircraft type
Origin: KBUR Bob Hope-Burbank
United States
Destination: KSBA Santa Barbara Mun
United States
More flights between these airports :: More routes between these airports
Route: VNY3 FIM V186 KWANG
File this flight plan on PilotEdge
Remarks:
Altitude:
(Current/Filed)
6,000ft
Speed:
(Current/Filed)
118kts
Departed: 08-Dec-18 10:21 AM
Arrived: 08-Dec-18 11:20 AM
Distance/Time
Traveled:
74nm/0:59
Distance/Time
To Go:
Arrived

Flight Plot

Page will automatically refresh every two minutes.

Flight plan parsing failed; only flown route is shown


Map Options




Map Legend


Flown Route
Filed Route
Departure Airport
Arrival Airport
Navaid (VOR, NDB)
Fix

Horizontal Profiles

Position Reports

Time Latitude Longitude Heading Altitude Ground
Speed
08-Dec-18 10:01 34.195989 -118.367139 180 781ft 0kts
08-Dec-18 10:02 34.195989 -118.367139 180 781ft 0kts
08-Dec-18 10:03 34.195989 -118.367139 180 781ft 0kts
08-Dec-18 10:04 34.195989 -118.367139 180 781ft 0kts
08-Dec-18 10:05 34.195989 -118.367139 180 781ft 0kts
08-Dec-18 10:06 34.195989 -118.367139 180 781ft 0kts
08-Dec-18 10:07 34.195989 -118.367139 180 781ft 0kts
08-Dec-18 10:08 34.195989 -118.367139 180 781ft 0kts
08-Dec-18 10:09 34.195989 -118.367139 180 781ft 0kts
08-Dec-18 10:10 34.195989 -118.367139 180 781ft 0kts
08-Dec-18 10:11 34.195989 -118.367139 180 781ft 0kts
08-Dec-18 10:12 34.195989 -118.367139 180 781ft 0kts
08-Dec-18 10:13 34.195989 -118.367139 180 781ft 0kts
08-Dec-18 10:14 34.196030 -118.366556 61 781ft 7kts
08-Dec-18 10:15 34.196735 -118.366558 273 781ft 7kts
08-Dec-18 10:16 34.196748 -118.368405 270 781ft 9kts
08-Dec-18 10:17 34.196998 -118.368981 343 781ft 0kts
08-Dec-18 10:18 34.197008 -118.368984 347 781ft 0kts
08-Dec-18 10:19 34.197009 -118.368984 347 781ft 0kts
08-Dec-18 10:20 34.197829 -118.366247 91 781ft 53kts
08-Dec-18 10:21 34.196058 -118.338186 136 1321ft 89kts
08-Dec-18 10:22 34.174007 -118.351833 211 2059ft 96kts
08-Dec-18 10:23 34.151250 -118.369579 211 2760ft 97kts
08-Dec-18 10:24 34.127700 -118.384429 216 3452ft 93kts
08-Dec-18 10:25 34.123968 -118.412137 268 4156ft 84kts
08-Dec-18 10:26 34.122282 -118.439903 268 4841ft 81kts
08-Dec-18 10:27 34.120346 -118.466561 270 5519ft 77kts
08-Dec-18 10:28 34.123567 -118.492051 282 6041ft 86kts
08-Dec-18 10:29 34.128406 -118.525356 282 6009ft 106kts
08-Dec-18 10:30 34.134711 -118.557674 287 5988ft 86kts
08-Dec-18 10:31 34.140363 -118.584482 284 6007ft 81kts
08-Dec-18 10:32 34.145291 -118.611125 284 6013ft 81kts
08-Dec-18 10:33 34.150199 -118.638003 285 6013ft 81kts
08-Dec-18 10:34 34.155111 -118.664875 285 6013ft 82kts
08-Dec-18 10:35 34.160047 -118.691905 285 6013ft 82kts
08-Dec-18 10:36 34.164991 -118.719376 283 6095ft 96kts
08-Dec-18 10:37 34.170121 -118.755229 288 5954ft 92kts
08-Dec-18 10:38 34.176469 -118.782146 286 6012ft 81kts
08-Dec-18 10:39 34.181413 -118.809094 285 6014ft 82kts
08-Dec-18 10:40 34.186334 -118.836225 285 6010ft 82kts
08-Dec-18 10:41 34.191245 -118.863333 285 6010ft 82kts
08-Dec-18 10:42 34.196143 -118.890344 285 6010ft 82kts
08-Dec-18 10:43 34.201048 -118.917464 285 6009ft 82kts
08-Dec-18 10:44 34.205956 -118.944624 285 6009ft 82kts
08-Dec-18 10:45 34.210836 -118.971663 285 6010ft 82kts
08-Dec-18 10:46 34.215728 -118.998805 285 6010ft 82kts
08-Dec-18 10:47 34.220609 -119.025917 285 6011ft 82kts
08-Dec-18 10:48 34.225484 -119.053034 285 6011ft 82kts
08-Dec-18 10:49 34.230339 -119.080126 285 6009ft 82kts
08-Dec-18 10:50 34.235213 -119.107310 285 6009ft 82kts
08-Dec-18 10:51 34.240084 -119.134512 285 6009ft 82kts
08-Dec-18 10:52 34.244916 -119.161903 285 6011ft 84kts
08-Dec-18 10:53 34.249843 -119.189808 285 6009ft 84kts
08-Dec-18 10:54 34.254821 -119.217724 285 6009ft 84kts
08-Dec-18 10:55 34.259802 -119.245683 285 6009ft 84kts
08-Dec-18 10:56 34.264768 -119.273595 285 6010ft 84kts
08-Dec-18 10:57 34.269724 -119.301486 285 6009ft 85kts
08-Dec-18 10:58 34.274738 -119.328406 285 5488ft 79kts
08-Dec-18 10:59 34.274523 -119.353505 275 4889ft 74kts
08-Dec-18 11:00 34.279973 -119.376866 286 4311ft 71kts
08-Dec-18 11:01 34.285629 -119.400176 284 4159ft 72kts
08-Dec-18 11:02 34.290283 -119.423380 283 4281ft 71kts
08-Dec-18 11:03 34.294667 -119.447089 281 4297ft 81kts
08-Dec-18 11:04 34.299316 -119.476626 284 3992ft 85kts
08-Dec-18 11:05 34.304854 -119.502884 284 4005ft 78kts
08-Dec-18 11:06 34.311810 -119.527207 295 3762ft 77kts
08-Dec-18 11:07 34.321053 -119.551374 296 3277ft 80kts
08-Dec-18 11:08 34.330550 -119.576036 296 2782ft 80kts
08-Dec-18 11:09 34.340058 -119.600530 289 2274ft 81kts
08-Dec-18 11:10 34.349291 -119.623235 290 2050ft 60kts
08-Dec-18 11:11 34.356600 -119.640264 289 1881ft 57kts
08-Dec-18 11:12 34.363597 -119.658361 288 2035ft 61kts
08-Dec-18 11:14 34.371558 -119.682272 288 2108ft 88kts
08-Dec-18 11:15 34.381676 -119.708662 290 2098ft 84kts
08-Dec-18 11:16 34.391403 -119.735560 287 1774ft 94kts
08-Dec-18 11:17 34.401863 -119.767213 276 1095ft 105kts
08-Dec-18 11:18 34.414739 -119.798382 317 748ft 94kts
08-Dec-18 11:19 34.428190 -119.820063 272 391ft 70kts
08-Dec-18 11:20 34.427824 -119.837249 268 13ft 5kts
08-Dec-18 11:21 34.427249 -119.837679 165 13ft 0kts
08-Dec-18 11:22 34.426857 -119.837616 203 13ft 0kts
08-Dec-18 11:23 34.424410 -119.836655 145 13ft 3kts
08-Dec-18 11:24 34.424503 -119.836006 71 13ft 0kts

Navigation Log

Ident Type
Flight plan parsing failed, navigation log unavailable